createdAt,value
2023-04-10T00:00:07.450Z,96981.68
2023-04-10T00:02:55.825Z,96977.22
2023-04-10T00:05:24.488Z,96974.58
2023-04-10T00:07:52.407Z,96975.30
2023-04-10T00:10:20.437Z,96973.96
2023-04-10T00:12:48.494Z,96969.69
2023-04-10T00:15:16.881Z,96970.55
2023-04-10T00:17:45.621Z,96963.73
2023-04-10T00:20:13.878Z,96962.46
2023-04-10T00:22:43.146Z,96960.25
2023-04-10T00:25:11.319Z,96957.98
2023-04-10T00:27:39.306Z,96955.35
2023-04-10T00:30:07.942Z,96955.81
2023-04-10T00:32:36.318Z,96954.19
2023-04-10T00:35:04.697Z,96955.90
2023-04-10T00:37:32.817Z,96955.14
2023-04-10T00:40:01.378Z,96954.36
2023-04-10T00:42:29.463Z,96949.44
2023-04-10T00:44:57.453Z,96943.34
2023-04-10T00:47:25.822Z,96933.80
2023-04-10T00:49:53.874Z,96942.96
2023-04-10T00:52:22.234Z,96939.67
2023-04-10T00:54:50.299Z,96940.23
2023-04-10T00:57:18.395Z,96941.39
2023-04-10T00:59:48.529Z,96928.61
2023-04-10T01:02:16.866Z,96936.38
2023-04-10T01:04:45.008Z,96935.13
2023-04-10T01:07:19.066Z,96932.33
2023-04-10T01:10:05.009Z,96932.58
2023-04-10T01:12:42.357Z,96930.98
2023-04-10T01:15:32.451Z,96932.25
2023-04-10T01:18:13.121Z,96931.07
2023-04-10T01:20:41.499Z,96928.90
2023-04-10T01:23:24.920Z,96925.29
2023-04-10T01:25:57.087Z,96922.80
2023-04-10T01:28:49.413Z,96919.51
2023-04-10T01:31:45.463Z,96921.13
2023-04-10T01:34:20.213Z,96925.27
2023-04-10T01:37:01.130Z,96918.87
2023-04-10T01:39:29.649Z,96919.33
2023-04-10T01:42:00.187Z,96920.73
2023-04-10T01:44:42.002Z,96917.98
2023-04-10T01:47:10.188Z,96907.48
2023-04-10T01:49:42.675Z,96916.02
2023-04-10T01:52:11.828Z,96915.92
2023-04-10T01:54:40.160Z,96916.82
2023-04-10T01:57:08.471Z,96915.70
2023-04-10T01:59:52.225Z,96920.04
2023-04-10T02:02:20.457Z,96918.65
2023-04-10T02:04:51.973Z,96917.54
2023-04-10T02:07:23.195Z,96917.23
2023-04-10T02:09:58.644Z,96911.21
2023-04-10T02:12:37.156Z,96913.56
2023-04-10T02:15:07.570Z,96911.98
2023-04-10T02:17:37.391Z,96911.42
2023-04-10T02:20:06.746Z,96914.64
2023-04-10T02:22:35.176Z,96911.19
2023-04-10T02:25:04.674Z,96910.39
2023-04-10T02:27:36.353Z,96907.50
2023-04-10T02:30:05.011Z,96907.90
2023-04-10T02:32:34.500Z,96908.17
2023-04-10T02:35:03.243Z,96906.15
2023-04-10T02:37:32.879Z,96901.09
2023-04-10T02:40:01.836Z,96899.04
2023-04-10T02:42:33.335Z,96901.41
2023-04-10T02:45:01.923Z,96902.52
2023-04-10T02:47:34.256Z,96903.80
2023-04-10T02:50:02.422Z,96901.57
2023-04-10T02:52:35.286Z,96897.59
2023-04-10T02:55:03.571Z,96898.08
2023-04-10T02:57:36.335Z,96895.80
2023-04-10T03:00:05.587Z,96893.69
2023-04-10T03:02:52.141Z,96895.16
2023-04-10T03:05:20.727Z,96891.86
2023-04-10T03:07:48.935Z,96890.39
2023-04-10T03:10:17.295Z,96893.26
2023-04-10T03:12:45.471Z,96891.63
2023-04-10T03:15:13.634Z,96888.55
2023-04-10T03:17:41.931Z,96888.79
2023-04-10T03:20:11.314Z,96889.80
2023-04-10T03:22:39.999Z,96885.57
2023-04-10T03:25:09.607Z,96886.91
2023-04-10T03:27:38.804Z,96887.74
2023-04-10T03:30:08.337Z,96890.31
2023-04-10T03:32:42.525Z,96896.86
2023-04-10T03:35:10.905Z,96894.12
2023-04-10T03:37:38.971Z,96892.80
2023-04-10T03:40:08.139Z,96891.91
2023-04-10T03:42:36.341Z,96893.55
2023-04-10T03:45:06.779Z,96890.57
2023-04-10T03:47:35.044Z,96893.06
2023-04-10T03:50:05.627Z,96893.30
2023-04-10T03:52:40.542Z,96895.53
2023-04-10T03:55:12.274Z,96898.88
2023-04-10T03:57:40.947Z,96898.73
2023-04-10T04:00:12.822Z,96893.91
2023-04-10T04:02:53.129Z,96891.39
2023-04-10T04:05:47.460Z,96893.17
2023-04-10T04:08:39.529Z,96895.98
2023-04-10T04:11:46.071Z,96897.36
2023-04-10T04:14:37.306Z,96902.98
2023-04-10T04:17:24.209Z,96898.99
2023-04-10T04:20:08.203Z,96899.00
2023-04-10T04:22:54.856Z,96900.70
2023-04-10T04:25:41.570Z,96894.76
2023-04-10T04:28:42.295Z,96899.63
2023-04-10T04:31:17.033Z,96899.64
2023-04-10T04:34:04.166Z,96895.29
2023-04-10T04:37:10.709Z,96902.02
2023-04-10T04:40:12.288Z,96899.53
2023-04-10T04:42:59.396Z,96902.68
2023-04-10T04:46:00.029Z,96899.42
2023-04-10T04:48:46.981Z,96899.83
2023-04-10T04:51:36.213Z,96897.23
2023-04-10T04:54:08.152Z,96898.98
2023-04-10T04:56:49.967Z,96898.54
2023-04-10T04:59:44.155Z,96898.36
2023-04-10T05:02:26.631Z,96901.12
2023-04-10T05:05:08.255Z,96900.85
2023-04-10T05:07:47.587Z,96899.21
2023-04-10T05:10:35.933Z,96903.58
2023-04-10T05:13:30.431Z,96900.39
2023-04-10T05:16:17.564Z,96900.27
2023-04-10T05:18:58.336Z,96901.89
2023-04-10T05:21:46.544Z,96902.61
2023-04-10T05:24:34.792Z,96907.08
2023-04-10T05:27:26.528Z,96911.78
2023-04-10T05:29:54.610Z,96913.20
2023-04-10T05:32:43.207Z,96915.86
2023-04-10T05:35:20.746Z,96912.23
2023-04-10T05:38:13.812Z,96912.66
2023-04-10T05:40:55.240Z,96910.92
2023-04-10T05:43:38.311Z,96914.06
2023-04-10T05:46:26.335Z,96913.70
2023-04-10T05:49:26.689Z,96914.27
2023-04-10T05:51:54.865Z,96918.77
2023-04-10T05:54:43.315Z,96914.05
2023-04-10T05:57:30.730Z,96917.82
2023-04-10T06:00:18.235Z,96919.59
2023-04-10T06:03:27.661Z,96911.11
2023-04-10T06:06:00.270Z,96908.43
2023-04-10T06:08:28.654Z,96912.48
2023-04-10T06:10:57.441Z,96909.03
2023-04-10T06:13:27.488Z,96905.52
2023-04-10T06:15:58.714Z,96901.61
2023-04-10T06:18:26.989Z,96900.59
2023-04-10T06:20:56.911Z,96900.65
2023-04-10T06:23:25.278Z,96896.60
2023-04-10T06:25:53.462Z,96895.94
2023-04-10T06:28:21.519Z,96896.64
2023-04-10T06:30:51.407Z,96897.41
2023-04-10T06:33:19.726Z,96899.91
2023-04-10T06:35:48.139Z,96898.39
2023-04-10T06:38:16.899Z,96899.85
2023-04-10T06:40:45.400Z,96902.27
2023-04-10T06:43:13.521Z,96900.36
2023-04-10T06:45:41.717Z,96894.91
2023-04-10T06:48:09.894Z,96896.12
2023-04-10T06:50:37.964Z,96893.10
2023-04-10T06:53:06.228Z,96894.58
2023-04-10T06:55:34.411Z,96889.27
2023-04-10T06:58:02.486Z,96892.39
2023-04-10T07:00:30.892Z,96885.98
2023-04-10T07:02:59.114Z,96885.31
2023-04-10T07:05:27.270Z,96885.82
2023-04-10T07:07:55.388Z,96888.68
2023-04-10T07:10:23.669Z,96889.42
2023-04-10T07:12:51.837Z,96893.46
2023-04-10T07:15:19.909Z,96887.92
2023-04-10T07:17:48.561Z,96893.77
2023-04-10T07:20:16.871Z,96890.66
2023-04-10T07:22:45.142Z,96885.81
2023-04-10T07:25:14.440Z,96886.86
2023-04-10T07:27:42.512Z,96883.91
2023-04-10T07:30:13.525Z,96885.02
2023-04-10T07:32:42.445Z,96882.69
2023-04-10T07:35:11.253Z,96885.23
2023-04-10T07:37:40.020Z,96881.25
2023-04-10T07:40:08.924Z,96881.14
2023-04-10T07:42:37.196Z,96878.09
2023-04-10T07:45:06.815Z,96877.41
2023-04-10T07:47:34.798Z,96879.10
2023-04-10T07:50:04.083Z,96876.02
2023-04-10T07:52:32.053Z,96878.27
2023-04-10T07:55:03.273Z,96871.43
2023-04-10T07:57:32.508Z,96871.91
2023-04-10T08:00:00.984Z,96872.25
2023-04-10T08:02:29.190Z,96872.02
2023-04-10T08:04:57.475Z,96871.80
2023-04-10T08:07:25.833Z,96868.43
2023-04-10T08:09:53.802Z,96867.73
2023-04-10T08:20:01.156Z,96856.68
2023-04-10T08:25:03.209Z,96853.86
2023-04-10T08:27:31.266Z,96853.70
2023-04-10T08:29:59.284Z,96845.92
2023-04-10T08:32:28.265Z,96844.34
2023-04-10T08:34:56.581Z,96837.04
2023-04-10T08:37:26.574Z,96839.95
2023-04-10T08:39:54.615Z,96837.11
2023-04-10T08:42:22.872Z,96837.50
2023-04-10T08:44:50.965Z,96835.38
2023-04-10T08:47:20.903Z,96836.31
2023-04-10T08:49:55.564Z,96836.31
2023-04-10T08:52:25.503Z,96831.34
2023-04-10T08:57:29.726Z,96825.84
2023-04-10T08:59:58.510Z,96820.50
2023-04-10T09:02:26.827Z,96821.76
2023-04-10T09:04:59.111Z,96820.90
2023-04-10T09:07:27.458Z,96814.05
2023-04-10T09:09:55.509Z,96811.55
2023-04-10T09:12:23.586Z,96808.00
2023-04-10T09:14:53.614Z,96808.16
2023-04-10T09:17:23.155Z,96809.96
2023-04-10T09:19:55.493Z,96813.48
2023-04-10T09:22:30.706Z,96809.63
2023-04-10T09:24:59.616Z,96810.33
2023-04-10T09:27:38.841Z,96805.91
2023-04-10T09:30:08.537Z,96802.75
2023-04-10T09:32:40.781Z,96799.05
2023-04-10T09:35:13.314Z,96799.60
2023-04-10T09:37:42.601Z,96798.74
2023-04-10T09:40:24.849Z,96802.05
2023-04-10T09:42:53.810Z,96792.38
2023-04-10T09:45:23.055Z,96796.95
2023-04-10T09:48:05.584Z,96793.66
2023-04-10T09:50:43.671Z,96787.44
2023-04-10T09:53:13.514Z,96786.66
2023-04-10T10:05:55.084Z,96780.91
2023-04-10T10:08:24.774Z,96779.98
2023-04-10T10:10:55.731Z,96783.22
2023-04-10T10:13:45.402Z,96783.08
2023-04-10T10:16:19.083Z,96775.27
2023-04-10T10:19:12.183Z,96772.14
2023-04-10T10:21:40.650Z,96770.79
2023-04-10T10:24:09.358Z,96764.02
2023-04-10T10:26:39.237Z,96761.45
2023-04-10T10:29:11.502Z,96757.12
2023-04-10T10:31:39.609Z,96754.84
2023-04-10T10:34:09.464Z,96754.30
2023-04-10T10:36:37.998Z,96755.95
2023-04-10T10:39:27.863Z,96751.23
2023-04-10T10:42:20.644Z,96746.67
2023-04-10T10:44:59.610Z,96749.91
2023-04-10T10:47:29.081Z,96744.33
2023-04-10T10:49:59.164Z,96741.74
2023-04-10T10:52:44.864Z,96741.27
2023-04-10T10:55:21.968Z,96738.59
2023-04-10T10:57:50.342Z,96737.10
2023-04-10T11:00:18.712Z,96736.39
2023-04-10T11:03:09.557Z,96739.70
2023-04-10T11:05:56.511Z,96734.29
2023-04-10T11:08:34.029Z,96740.04
2023-04-10T11:11:09.594Z,96736.42
2023-04-10T11:13:39.287Z,96739.73
2023-04-10T11:16:10.665Z,96731.95
2023-04-10T11:18:44.801Z,96732.17
2023-04-10T11:21:17.527Z,96726.89
2023-04-10T11:23:57.689Z,96728.09
2023-04-10T11:29:17.701Z,96724.15
2023-04-10T11:42:40.300Z,96716.44
2023-04-10T11:45:27.138Z,96710.23
2023-04-10T11:47:55.615Z,96709.20
2023-04-10T11:50:23.760Z,96705.83
2023-04-10T11:52:52.266Z,96703.99
2023-04-10T11:55:21.238Z,96700.70
2023-04-10T11:57:49.617Z,96698.89
2023-04-10T12:05:48.036Z,96683.70
2023-04-10T12:08:16.302Z,96682.67
2023-04-10T12:10:47.396Z,96682.05
2023-04-10T12:13:25.644Z,96678.50
2023-04-10T12:15:54.463Z,96676.63
2023-04-10T12:18:22.502Z,96675.91
2023-04-10T12:20:51.897Z,96675.42
2023-04-10T12:23:19.893Z,96671.89
2023-04-10T12:25:47.969Z,96665.83
2023-04-10T12:28:20.232Z,96666.30
2023-04-10T12:30:55.354Z,96665.05
2023-04-10T12:33:24.488Z,96663.48
2023-04-10T12:35:52.917Z,96661.74
2023-04-10T12:38:40.687Z,96658.13
2023-04-10T12:41:10.005Z,96661.97
2023-04-10T12:43:42.287Z,96658.83
2023-04-10T12:46:10.895Z,96654.41
2023-04-10T12:48:39.340Z,96651.59
2023-04-10T12:53:45.100Z,96645.05
2023-04-10T12:58:48.008Z,96640.17
2023-04-10T13:03:49.862Z,96636.71
2023-04-10T13:06:18.361Z,96635.46
2023-04-10T13:08:46.942Z,96629.86
2023-04-10T13:11:14.983Z,96629.31
2023-04-10T13:13:42.999Z,96624.67
2023-04-10T13:16:13.607Z,96626.88
2023-04-10T13:18:41.889Z,96623.01
2023-04-10T13:21:10.889Z,96622.37
2023-04-10T13:23:38.959Z,96619.45
2023-04-10T13:26:07.238Z,96617.32
2023-04-10T13:28:35.528Z,96619.66
2023-04-10T13:31:03.738Z,96616.20
2023-04-10T13:33:32.070Z,96615.48
2023-04-10T13:36:00.395Z,96615.96
2023-04-10T13:38:28.614Z,96614.55
2023-04-10T13:40:56.805Z,96610.69
2023-04-10T13:43:24.764Z,96607.08
2023-04-10T13:45:53.036Z,96608.17
2023-04-10T13:48:24.517Z,96605.19
2023-04-10T13:50:58.192Z,96604.64
2023-04-10T13:53:26.283Z,96597.79
2023-04-10T13:55:54.492Z,96602.27
2023-04-10T13:58:22.618Z,96600.00
2023-04-10T14:00:50.704Z,96597.01
2023-04-10T14:03:18.967Z,96593.55
2023-04-10T14:05:48.267Z,96591.29
2023-04-10T14:08:16.453Z,96586.91
2023-04-10T14:10:46.233Z,96589.75
2023-04-10T14:13:14.422Z,96587.55
2023-04-10T14:15:42.805Z,96585.58
2023-04-10T14:18:11.304Z,96581.17
2023-04-10T14:20:42.561Z,96580.15
2023-04-10T14:23:17.051Z,96579.12
2023-04-10T14:25:45.952Z,96578.17
2023-04-10T14:28:18.184Z,96574.94
2023-04-10T14:30:48.436Z,96576.30
2023-04-10T14:33:18.620Z,96575.04
2023-04-10T14:35:48.024Z,96568.04
2023-04-10T14:38:16.358Z,96570.80
2023-04-10T14:40:48.584Z,96570.11
2023-04-10T14:43:16.903Z,96570.66
2023-04-10T14:45:45.153Z,96569.80
2023-04-10T14:48:13.532Z,96568.46
2023-04-10T14:50:41.918Z,96567.77
2023-04-10T14:53:11.121Z,96566.17
2023-04-10T14:55:39.395Z,96564.60
2023-04-10T14:58:09.110Z,96563.11
2023-04-10T15:00:37.292Z,96565.86
2023-04-10T15:03:06.403Z,96564.13
2023-04-10T15:05:34.946Z,96565.55
2023-04-10T15:08:03.035Z,96567.92
2023-04-10T15:10:31.015Z,96564.70
2023-04-10T15:12:59.064Z,96562.71
2023-04-10T15:15:27.016Z,96554.75
2023-04-10T15:17:55.104Z,96550.96
2023-04-10T15:20:23.290Z,96548.52
2023-04-10T15:22:51.365Z,96548.14
2023-04-10T15:25:19.420Z,96547.77
2023-04-10T15:27:47.393Z,96545.30
2023-04-10T15:30:17.310Z,96542.38
2023-04-10T15:32:45.335Z,96542.65
2023-04-10T15:35:13.374Z,96548.30
2023-04-10T15:37:41.497Z,96546.43
2023-04-10T15:40:10.723Z,96546.82
2023-04-10T15:42:38.899Z,96546.96
2023-04-10T15:45:07.488Z,96545.70
2023-04-10T15:47:35.638Z,96540.78
2023-04-10T15:50:04.998Z,96539.75
2023-04-10T15:52:34.055Z,96541.31
2023-04-10T15:55:02.103Z,96541.39
2023-04-10T15:57:30.198Z,96539.36
2023-04-10T16:00:00.736Z,96538.84
2023-04-10T16:02:29.068Z,96539.48
2023-04-10T16:04:57.320Z,96537.71
2023-04-10T16:07:25.554Z,96536.92
2023-04-10T16:09:55.374Z,96534.80
2023-04-10T16:12:23.444Z,96539.38
2023-04-10T16:14:51.765Z,96535.88
2023-04-10T16:17:19.945Z,96536.54
2023-04-10T16:19:48.206Z,96543.02
2023-04-10T16:22:16.445Z,96540.18
2023-04-10T16:24:44.701Z,96539.81
2023-04-10T16:27:12.680Z,96539.72
2023-04-10T16:29:40.760Z,96541.58
2023-04-10T16:32:08.938Z,96544.23
2023-04-10T16:34:36.898Z,96543.86
2023-04-10T16:37:05.389Z,96548.55
2023-04-10T16:39:33.286Z,96540.20
2023-04-10T16:42:03.597Z,96543.13
2023-04-10T16:44:34.409Z,96538.11
2023-04-10T16:47:02.882Z,96540.42
2023-04-10T16:49:31.445Z,96539.51
2023-04-10T16:51:59.583Z,96546.03
2023-04-10T16:54:27.548Z,96546.91
2023-04-10T16:56:55.906Z,96548.04
2023-04-10T16:59:23.968Z,96549.80
2023-04-10T17:01:52.100Z,96550.59
2023-04-10T17:04:20.710Z,96553.88
2023-04-10T17:06:49.088Z,96552.96
2023-04-10T17:09:17.293Z,96556.10
2023-04-10T17:11:45.559Z,96562.60
2023-04-10T17:14:14.708Z,96558.13
2023-04-10T17:16:42.742Z,96561.66
2023-04-10T17:19:11.218Z,96566.75
2023-04-10T17:21:39.479Z,96566.73
2023-04-10T17:24:07.565Z,96567.73
2023-04-10T17:26:36.043Z,96571.64
2023-04-10T17:29:04.119Z,96574.84
2023-04-10T17:31:32.224Z,96574.80
2023-04-10T17:34:00.570Z,96577.48
2023-04-10T17:36:28.739Z,96575.34
2023-04-10T17:38:57.301Z,96576.34
2023-04-10T17:41:25.716Z,96578.34
2023-04-10T17:43:53.770Z,96578.89
2023-04-10T17:46:22.668Z,96580.19
2023-04-10T17:48:50.867Z,96582.11
2023-04-10T17:51:18.910Z,96583.88
2023-04-10T17:53:47.099Z,96588.41
2023-04-10T17:56:19.771Z,96594.86
2023-04-10T17:58:47.812Z,96595.09
2023-04-10T18:01:23.109Z,96596.40
2023-04-10T18:03:51.426Z,96602.36
2023-04-10T18:06:19.641Z,96599.45
2023-04-10T18:08:47.910Z,96597.78
2023-04-10T18:11:16.087Z,96592.92
2023-04-10T18:13:44.147Z,96596.84
2023-04-10T18:16:12.465Z,96598.94
2023-04-10T18:18:43.866Z,96602.45
2023-04-10T18:21:13.433Z,96610.66
2023-04-10T18:23:41.475Z,96613.58
2023-04-10T18:26:12.218Z,96613.98
2023-04-10T18:28:42.209Z,96615.64
2023-04-10T18:31:10.196Z,96613.45
2023-04-10T18:33:38.346Z,96621.36
2023-04-10T18:36:06.999Z,96612.45
2023-04-10T18:38:35.125Z,96620.94
2023-04-10T18:41:03.276Z,96622.71
2023-04-10T18:43:31.456Z,96623.83
2023-04-10T18:45:59.988Z,96624.90
2023-04-10T18:48:30.770Z,96625.30
2023-04-10T18:51:00.891Z,96626.66
2023-04-10T18:53:29.073Z,96625.98
2023-04-10T18:55:57.251Z,96629.23
2023-04-10T18:58:25.342Z,96627.29
2023-04-10T19:00:53.895Z,96630.95
2023-04-10T19:03:22.090Z,96632.80
2023-04-10T19:05:50.449Z,96632.98
2023-04-10T19:08:18.935Z,96632.31
2023-04-10T19:10:47.313Z,96631.87
2023-04-10T19:13:15.884Z,96632.68
2023-04-10T19:15:46.311Z,96632.30
2023-04-10T19:18:15.873Z,96634.60
2023-04-10T19:20:51.027Z,96640.02
2023-04-10T19:23:21.112Z,96642.02
2023-04-10T19:25:53.663Z,96637.30
2023-04-10T19:28:23.244Z,96638.15
2023-04-10T19:30:52.077Z,96636.30
2023-04-10T19:33:20.760Z,96639.13
2023-04-10T19:35:48.997Z,96635.80
2023-04-10T19:38:17.241Z,96634.15
2023-04-10T19:40:45.562Z,96639.02
2023-04-10T19:43:13.738Z,96640.39
2023-04-10T19:45:41.816Z,96638.65
2023-04-10T19:48:10.015Z,96638.61
2023-04-10T19:50:38.181Z,96639.09
2023-04-10T19:53:06.338Z,96638.23
2023-04-10T19:55:34.627Z,96632.32
2023-04-10T19:58:02.804Z,96635.38
2023-04-10T20:00:30.856Z,96631.48
2023-04-10T20:02:59.416Z,96631.15
2023-04-10T20:05:27.824Z,96625.51
2023-04-10T20:07:56.101Z,96627.23
2023-04-10T20:10:24.169Z,96628.59
2023-04-10T20:12:52.144Z,96625.14
2023-04-10T20:15:21.548Z,96621.34
2023-04-10T20:17:49.634Z,96620.40
2023-04-10T20:20:18.097Z,96620.59
2023-04-10T20:22:46.159Z,96619.27
2023-04-10T20:25:14.668Z,96622.94
2023-04-10T20:27:42.819Z,96624.48
2023-04-10T20:30:11.550Z,96616.39
2023-04-10T20:32:39.590Z,96615.27
2023-04-10T20:35:08.585Z,96618.66
2023-04-10T20:37:36.558Z,96613.59
2023-04-10T20:40:05.232Z,96616.95
2023-04-10T20:42:33.315Z,96617.73
2023-04-10T20:45:01.507Z,96618.27
2023-04-10T20:47:29.685Z,96617.27
2023-04-10T20:49:57.829Z,96610.22
2023-04-10T20:52:26.098Z,96610.48
2023-04-10T20:54:54.062Z,96605.80
2023-04-10T20:57:22.022Z,96595.20
2023-04-10T20:59:50.115Z,96611.56
2023-04-10T21:02:18.451Z,96614.31
2023-04-10T21:04:46.646Z,96606.44
2023-04-10T21:07:14.836Z,96603.90
2023-04-10T21:09:42.810Z,96599.91
2023-04-10T21:12:10.882Z,96599.80
2023-04-10T21:14:38.865Z,96597.19
2023-04-10T21:17:06.919Z,96597.63
2023-04-10T21:19:35.000Z,96596.88
2023-04-10T21:22:03.093Z,96589.27
2023-04-10T21:24:31.147Z,96587.93
2023-04-10T21:26:59.540Z,96588.16
2023-04-10T21:29:27.606Z,96591.27
2023-04-10T21:31:56.738Z,96587.50
2023-04-10T21:34:25.372Z,96585.30
2023-04-10T21:36:54.572Z,96581.27
2023-04-10T21:39:22.749Z,96582.06
2023-04-10T21:41:51.023Z,96587.00
2023-04-10T21:44:19.099Z,96584.05
2023-04-10T21:46:47.477Z,96579.79
2023-04-10T21:49:15.646Z,96580.94
2023-04-10T21:51:44.035Z,96577.79
2023-04-10T21:54:12.101Z,96576.23
2023-04-10T21:56:41.423Z,96573.21
2023-04-10T21:59:09.576Z,96577.21
2023-04-10T22:01:37.644Z,96575.87
2023-04-10T22:04:06.176Z,96578.30
2023-04-10T22:06:34.600Z,96572.45
2023-04-10T22:09:02.546Z,96570.85
2023-04-10T22:11:30.543Z,96569.23
2023-04-10T22:14:05.626Z,96568.77
2023-04-10T22:16:41.071Z,96566.69
2023-04-10T22:19:09.299Z,96567.60
2023-04-10T22:21:37.790Z,96567.05
2023-04-10T22:24:06.454Z,96563.30
2023-04-10T22:26:35.410Z,96562.21
2023-04-10T22:29:03.977Z,96561.27
2023-04-10T22:31:32.120Z,96561.11
2023-04-10T22:34:00.094Z,96559.45
2023-04-10T22:36:33.027Z,96553.34
2023-04-10T22:39:01.455Z,96549.87
2023-04-10T22:41:30.647Z,96549.91
2023-04-10T22:43:58.844Z,96549.61
2023-04-10T22:46:26.940Z,96547.48
2023-04-10T22:48:57.119Z,96546.58
2023-04-10T22:51:26.938Z,96545.10
2023-04-10T22:53:55.203Z,96543.33
2023-04-10T22:56:26.719Z,96543.90
2023-04-10T22:58:55.710Z,96540.36
2023-04-10T23:01:23.965Z,96536.23
2023-04-10T23:03:54.056Z,96532.91
2023-04-10T23:06:22.227Z,96532.36
2023-04-10T23:08:51.757Z,96533.11
2023-04-10T23:11:19.914Z,96528.79
2023-04-10T23:13:49.001Z,96527.15
2023-04-10T23:16:17.029Z,96528.50
2023-04-10T23:18:45.467Z,96523.08
2023-04-10T23:21:13.530Z,96524.16
2023-04-10T23:23:41.698Z,96514.20
2023-04-10T23:26:11.667Z,96513.39
2023-04-10T23:28:39.887Z,96510.57
2023-04-10T23:31:09.262Z,96506.67
2023-04-10T23:33:37.277Z,96507.60
2023-04-10T23:36:06.108Z,96506.88
2023-04-10T23:38:34.221Z,96503.89
2023-04-10T23:41:03.147Z,96500.13
2023-04-10T23:43:31.168Z,96495.56
2023-04-10T23:45:59.667Z,96492.24
2023-04-10T23:48:27.774Z,96489.62
2023-04-10T23:51:05.988Z,96488.73
2023-04-10T23:53:34.345Z,96486.95
2023-04-10T23:56:02.916Z,96486.93
2023-04-10T23:58:31.191Z,96485.83
